Villa Carmela, Argentina
Current Conditions -  °F | °C
As of 8:00 AM on Sunday 21 Dec 2014 (Local Time) from SANT Reporting Station
Drizzle Drizzle  
Wind Chill: 57°   Ceiling: 500
Heat Index: 57°   Visibility: 1.2mi
Dew Point: 55°   Wind: 10mph
Humidity: 94%   Direction: 140°SE
Pressure: 29.94"   Gusts: NA
Location:  26.75°S, 65.28°W
Report Text: SANT 211100Z 14009KT 2000 DZ BKN005 OVC03514/13 Q1014
Loading
Personal Weather Stations






























Interactive Weather Map New forecast layout! Learn more

10-Day Weather Forecast

Advertisements
Track Severe Weather on mobile